Time;durP1;ratioP1;P1;durP2;ratioP2;P2;SDS_P1;SDS_P2;PMS_P1;PMS_P2;Temp;Humidity;BMP_temperature;BMP_pressure;BME280_temperature;BME280_humidity;BME280_pressure;Samples;Min_cycle;Max_cycle;Signal;HPM_P1;HPM_P2
2021/05/30 00:00:15;;;;;;;2.97;2.03;;;19.40;60.00;;;;;;5052622;28;20036;-61
2021/05/30 00:02:41;;;;;;;2.53;1.80;;;19.60;60.10;;;;;;5053567;28;20103;-61
2021/05/30 00:05:08;;;;;;;1.83;1.73;;;19.80;60.30;;;;;;5052342;28;20059;-61
2021/05/30 00:07:34;;;;;;;1.75;1.63;;;19.60;60.20;;;;;;5053258;28;20375;-61
2021/05/30 00:09:59;;;;;;;1.83;1.73;;;19.30;60.00;;;;;;5053726;28;20017;-61
2021/05/30 00:12:25;;;;;;;2.47;1.90;;;19.40;60.70;;;;;;5053688;28;20056;-61
2021/05/30 00:14:51;;;;;;;2.00;1.83;;;19.60;60.10;;;;;;5053590;28;20024;-61
2021/05/30 00:17:17;;;;;;;2.05;1.83;;;19.50;60.10;;;;;;5053307;28;20435;-61
2021/05/30 00:19:43;;;;;;;2.22;1.77;;;19.60;60.20;;;;;;5053220;28;20611;-61
2021/05/30 00:22:09;;;;;;;3.15;2.10;;;19.80;60.30;;;;;;5053524;28;20380;-61
2021/05/30 00:24:36;;;;;;;3.08;1.80;;;19.60;60.10;;;;;;5053387;28;20410;-61
2021/05/30 00:27:02;;;;;;;2.35;2.03;;;19.70;60.20;;;;;;5051894;28;20017;-61
2021/05/30 00:29:28;;;;;;;2.15;1.95;;;19.60;60.10;;;;;;5053127;28;20029;-61
2021/05/30 00:31:54;;;;;;;3.13;1.80;;;19.40;60.00;;;;;;5053295;28;20032;-60
2021/05/30 00:34:19;;;;;;;2.20;1.77;;;19.30;60.00;;;;;;5052869;28;20032;-61
2021/05/30 00:36:45;;;;;;;2.40;1.70;;;19.70;60.20;;;;;;5052854;28;20020;-61
2021/05/30 00:39:11;;;;;;;2.15;1.98;;;19.50;60.00;;;;;;5051749;28;20098;-61
2021/05/30 00:41:36;;;;;;;3.17;1.73;;;19.30;60.00;;;;;;5052849;28;20025;-61
2021/05/30 00:44:17;;;;;;;2.50;1.65;;;19.60;60.30;;;;;;5053069;28;20028;-61
2021/05/30 00:46:43;;;;;;;3.28;2.00;;;19.50;60.10;;;;;;5051630;28;20020;-61
2021/05/30 00:49:08;;;;;;;2.00;1.80;;;19.30;60.00;;;;;;5052478;28;20027;-61
2021/05/30 00:51:34;;;;;;;2.03;1.73;;;19.50;60.10;;;;;;5052727;28;20021;-61
2021/05/30 00:53:59;;;;;;;2.70;1.77;;;19.20;59.90;;;;;;5052960;28;20025;-61
2021/05/30 00:56:25;;;;;;;2.47;1.70;;;19.50;60.00;;;;;;5052671;28;20435;-61
2021/05/30 00:58:51;;;;;;;2.20;1.88;;;19.50;60.10;;;;;;5052909;28;20060;-61
2021/05/30 01:01:16;;;;;;;2.00;1.80;;;19.30;60.00;;;;;;5052547;28;20060;-61
2021/05/30 01:03:42;;;;;;;2.05;1.88;;;19.20;59.90;;;;;;5052479;28;20025;-61
2021/05/30 01:06:10;;;;;;;1.63;1.52;;;19.20;59.90;;;;;;5052503;28;20029;-61
2021/05/30 01:08:35;;;;;;;1.90;1.80;;;19.50;60.10;;;;;;5052727;28;20473;-61
2021/05/30 01:11:01;;;;;;;1.80;1.70;;;19.50;60.10;;;;;;5052432;28;20108;-61
2021/05/30 01:13:28;;;;;;;1.60;1.50;;;19.50;60.00;;;;;;5052356;28;20024;-61
2021/05/30 01:15:54;;;;;;;2.72;2.00;;;19.40;60.00;;;;;;5052358;28;20480;-61
2021/05/30 01:18:22;;;;;;;2.05;1.70;;;19.40;60.00;;;;;;5052310;28;20103;-61
2021/05/30 01:20:50;;;;;;;1.55;1.45;;;19.20;59.90;;;;;;5052277;28;20045;-61
2021/05/30 01:23:17;;;;;;;1.88;1.75;;;19.20;59.90;;;;;;5052612;28;20021;-61
2021/05/30 01:25:44;;;;;;;3.63;2.15;;;19.20;59.90;;;;;;5051042;28;20032;-61
2021/05/30 01:28:09;;;;;;;1.88;1.77;;;19.10;59.80;;;;;;5052593;28;20025;-61
2021/05/30 01:30:36;;;;;;;1.67;1.58;;;19.30;60.00;;;;;;5052548;28;20091;-61
2021/05/30 01:33:03;;;;;;;2.60;2.00;;;19.40;60.00;;;;;;5052513;28;20083;-61
2021/05/30 01:35:29;;;;;;;3.53;2.10;;;19.40;60.00;;;;;;5052258;28;20079;-61
2021/05/30 01:37:55;;;;;;;1.95;1.77;;;19.50;60.10;;;;;;5052402;28;20103;-61
2021/05/30 01:40:22;;;;;;;2.08;1.98;;;19.10;59.90;;;;;;5052155;28;20111;-61
2021/05/30 01:42:49;;;;;;;2.58;2.20;;;19.80;60.40;;;;;;5052445;28;20025;-61
2021/05/30 01:45:17;;;;;;;1.60;1.50;;;19.10;59.90;;;;;;5053556;28;20112;-61
2021/05/30 01:47:44;;;;;;;2.10;1.90;;;19.20;60.00;;;;;;5056241;28;20044;-61
2021/05/30 01:50:19;;;;;;;1.75;1.65;;;19.10;59.90;;;;;;5054656;28;20513;-61
2021/05/30 01:52:46;;;;;;;1.70;1.60;;;19.30;60.00;;;;;;5056342;28;20444;-61
2021/05/30 01:55:29;;;;;;;1.90;1.80;;;19.10;59.90;;;;;;5054779;28;20115;-61
2021/05/30 01:57:58;;;;;;;2.20;2.00;;;19.30;59.90;;;;;;5056039;28;20075;-61
2021/05/30 02:00:24;;;;;;;2.30;1.73;;;19.30;59.90;;;;;;5056088;28;20112;-61
2021/05/30 02:02:53;;;;;;;2.08;1.88;;;19.40;60.70;;;;;;5056190;28;20087;-61
2021/05/30 02:05:20;;;;;;;2.67;2.30;;;19.10;59.80;;;;;;5055835;28;20075;-61
2021/05/30 02:07:47;;;;;;;2.53;1.98;;;19.20;59.90;;;;;;5055804;28;20025;-61
2021/05/30 02:10:14;;;;;;;2.05;1.85;;;19.20;59.90;;;;;;5055778;28;20559;-61
2021/05/30 02:12:42;;;;;;;2.38;1.98;;;19.30;84.70;;;;;;5054447;28;20098;-61
2021/05/30 02:15:09;;;;;;;2.22;2.03;;;19.00;59.60;;;;;;5055924;28;20021;-61
2021/05/30 02:17:35;;;;;;;1.98;1.83;;;19.20;59.80;;;;;;5054416;28;20018;-61
2021/05/30 02:20:02;;;;;;;4.22;2.25;;;19.20;59.80;;;;;;5054246;28;20040;-61
2021/05/30 02:22:27;;;;;;;2.20;1.77;;;19.20;59.80;;;;;;5055575;28;20025;-61
2021/05/30 02:24:53;;;;;;;2.40;2.20;;;19.20;59.80;;;;;;5055753;28;20025;-61
2021/05/30 02:27:19;;;;;;;1.83;1.73;;;19.20;59.80;;;;;;5055532;28;20586;-61
2021/05/30 02:29:45;;;;;;;2.50;2.00;;;19.20;59.80;;;;;;5055443;28;20025;-61
2021/05/30 02:32:13;;;;;;;2.15;1.88;;;19.50;59.90;;;;;;5055651;28;20353;-61
2021/05/30 02:34:42;;;;;;;2.13;1.88;;;19.00;59.60;;;;;;5055664;28;20412;-61
2021/05/30 02:37:12;;;;;;;2.50;1.67;;;18.90;59.50;;;;;;5055809;28;20024;-61
2021/05/30 02:39:38;;;;;;;1.83;1.50;;;19.20;59.60;;;;;;5055379;28;20021;-61
2021/05/30 02:42:05;;;;;;;1.70;1.60;;;18.90;59.50;;;;;;5055212;28;20029;-61
2021/05/30 02:44:31;;;;;;;2.13;1.90;;;19.10;59.60;;;;;;5055159;28;20063;-61
2021/05/30 02:46:57;;;;;;;1.77;1.60;;;18.90;59.60;;;;;;5055174;28;20057;-61
2021/05/30 02:49:24;;;;;;;2.47;2.08;;;18.90;59.50;;;;;;5054871;28;20037;-61
2021/05/30 02:51:50;;;;;;;1.95;1.85;;;19.20;59.70;;;;;;5055260;28;20036;-61
2021/05/30 02:54:16;;;;;;;1.88;1.77;;;18.90;59.50;;;;;;5055137;28;20024;-61
2021/05/30 02:56:42;;;;;;;3.67;1.90;;;18.90;59.50;;;;;;5054631;28;20074;-61
2021/05/30 02:59:07;;;;;;;2.08;1.85;;;18.90;59.40;;;;;;5054981;28;20025;-61
2021/05/30 03:01:33;;;;;;;2.35;1.90;;;18.80;59.40;;;;;;5054766;28;20475;-61
2021/05/30 03:03:59;;;;;;;2.22;2.00;;;18.80;59.40;;;;;;5054766;28;20021;-61
2021/05/30 03:06:25;;;;;;;3.15;1.83;;;19.10;59.50;;;;;;5054983;28;20032;-61
2021/05/30 03:08:51;;;;;;;2.13;1.80;;;18.80;59.40;;;;;;5055038;28;20025;-61
2021/05/30 03:11:18;;;;;;;4.47;2.10;;;19.00;59.50;;;;;;5054579;28;20029;-61
2021/05/30 03:13:43;;;;;;;2.17;1.90;;;19.60;59.80;;;;;;5055212;28;20075;-61
2021/05/30 03:16:09;;;;;;;2.25;1.90;;;19.00;59.60;;;;;;5054722;28;20476;-61
2021/05/30 03:18:35;;;;;;;2.00;1.80;;;18.70;59.30;;;;;;5053662;28;20020;-61
2021/05/30 03:21:00;;;;;;;2.33;1.80;;;19.00;59.50;;;;;;5054444;28;20476;-61
2021/05/30 03:23:26;;;;;;;2.67;2.15;;;19.00;59.40;;;;;;5054473;28;20029;-61
2021/05/30 03:25:52;;;;;;;1.80;1.70;;;18.70;59.30;;;;;;5054384;28;20021;-61
2021/05/30 03:28:18;;;;;;;2.00;1.90;;;18.70;59.30;;;;;;5053029;28;20044;-61
2021/05/30 03:30:43;;;;;;;2.25;1.90;;;19.00;59.50;;;;;;5054295;28;20139;-61
2021/05/30 03:33:09;;;;;;;3.17;2.38;;;19.00;59.40;;;;;;5054209;28;20032;-61
2021/05/30 03:35:35;;;;;;;3.40;1.90;;;18.70;59.30;;;;;;5054162;28;20074;-61
2021/05/30 03:38:02;;;;;;;2.08;1.83;;;19.00;59.50;;;;;;5054065;28;20036;-61
2021/05/30 03:40:37;;;;;;;2.25;1.85;;;18.80;59.30;;;;;;5054254;28;20386;-61
2021/05/30 03:43:02;;;;;;;2.78;2.10;;;18.70;59.30;;;;;;5053996;28;20021;-61
2021/05/30 03:45:28;;;;;;;2.65;1.80;;;18.70;59.30;;;;;;5054209;28;20112;-61
2021/05/30 03:47:54;;;;;;;2.17;1.95;;;18.90;59.50;;;;;;5053965;28;20468;-61
2021/05/30 03:50:20;;;;;;;2.25;2.03;;;18.90;59.50;;;;;;5053738;28;20032;-61
2021/05/30 03:52:45;;;;;;;2.60;1.90;;;18.70;59.30;;;;;;5053901;28;20025;-60
2021/05/30 03:55:12;;;;;;;5.03;2.05;;;18.70;59.30;;;;;;5053841;28;20025;-61
2021/05/30 03:57:38;;;;;;;1.80;1.70;;;18.90;59.40;;;;;;5053770;28;20426;-61
2021/05/30 04:00:06;;;;;;;2.83;2.00;;;18.80;59.30;;;;;;5053622;28;20025;-61
2021/05/30 04:02:32;;;;;;;2.58;2.25;;;18.90;59.40;;;;;;5053686;28;20465;-61
2021/05/30 04:04:57;;;;;;;2.53;2.03;;;18.90;59.40;;;;;;5053891;28;20051;-61
2021/05/30 04:07:23;;;;;;;3.58;1.73;;;18.90;59.40;;;;;;5051612;28;20021;-61
2021/05/30 04:09:49;;;;;;;2.95;1.80;;;18.70;59.30;;;;;;5053373;28;20487;-61
2021/05/30 04:12:14;;;;;;;2.40;2.20;;;18.70;59.30;;;;;;5053433;28;20028;-61
2021/05/30 04:14:40;;;;;;;2.30;1.90;;;18.60;59.30;;;;;;5053435;28;20027;-61
2021/05/30 04:17:05;;;;;;;2.25;2.05;;;18.90;59.50;;;;;;5053283;28;20021;-61
2021/05/30 04:19:31;;;;;;;2.17;1.95;;;18.90;59.40;;;;;;5052061;28;20112;-61
2021/05/30 04:21:57;;;;;;;2.17;1.60;;;18.80;59.40;;;;;;5053425;28;20132;-61
2021/05/30 04:24:22;;;;;;;1.80;1.70;;;18.50;59.20;;;;;;5053529;28;20029;-61
2021/05/30 04:26:48;;;;;;;2.00;1.90;;;18.70;59.30;;;;;;5053453;28;20486;-61
2021/05/30 04:29:13;;;;;;;2.55;2.25;;;18.90;59.50;;;;;;5053149;28;20045;-61
2021/05/30 04:31:39;;;;;;;2.70;2.20;;;18.50;59.20;;;;;;5053345;28;20507;-61
2021/05/30 04:34:04;;;;;;;2.03;1.80;;;18.90;59.40;;;;;;5053327;28;20419;-61
2021/05/30 04:36:30;;;;;;;2.15;2.03;;;18.70;59.30;;;;;;5053158;28;20032;-61
2021/05/30 04:38:56;;;;;;;1.90;1.75;;;18.50;59.20;;;;;;5053051;28;20484;-61
2021/05/30 04:41:21;;;;;;;2.38;1.90;;;18.90;59.40;;;;;;5052870;28;20061;-61
2021/05/30 04:43:47;;;;;;;2.13;1.88;;;18.70;59.30;;;;;;5053127;28;20021;-61
2021/05/30 04:46:13;;;;;;;2.08;1.88;;;19.00;59.50;;;;;;5052822;28;20078;-61
2021/05/30 04:48:38;;;;;;;2.78;2.58;;;18.50;59.20;;;;;;5051529;28;20017;-61
2021/05/30 04:51:09;;;;;;;2.20;1.98;;;18.60;59.30;;;;;;5052643;28;20611;-61
2021/05/30 04:53:45;;;;;;;2.75;2.10;;;18.80;59.30;;;;;;5053113;28;20021;-61
2021/05/30 04:56:17;;;;;;;2.47;2.00;;;18.70;59.30;;;;;;5052992;28;20108;-61
2021/05/30 04:58:43;;;;;;;1.98;1.88;;;18.60;59.30;;;;;;5052881;28;20021;-61
2021/05/30 05:01:09;;;;;;;2.63;1.92;;;19.00;59.40;;;;;;5052813;28;20028;-61
2021/05/30 05:03:34;;;;;;;2.80;2.10;;;18.80;59.40;;;;;;5051311;28;20587;-61
2021/05/30 05:06:00;;;;;;;1.92;1.83;;;18.90;59.40;;;;;;5051276;28;20025;-60
2021/05/30 05:08:26;;;;;;;2.10;1.95;;;18.30;59.20;;;;;;5052857;28;20028;-61
2021/05/30 05:10:53;;;;;;;3.08;1.90;;;18.60;59.30;;;;;;5052783;28;20033;-61
2021/05/30 05:13:20;;;;;;;2.20;2.00;;;18.80;59.40;;;;;;5052805;28;20025;-61
2021/05/30 05:15:50;;;;;;;3.33;2.10;;;18.50;59.30;;;;;;5052428;28;20025;-61
2021/05/30 05:18:20;;;;;;;;;;;18.70;59.30;;;;;;5052963;28;20032;-61
2021/05/30 05:20:46;;;;;;;4.78;2.00;;;18.70;59.40;;;;;;5051052;28;19916;-61
2021/05/30 05:23:15;;;;;;;2.25;1.95;;;18.80;59.50;;;;;;5052704;28;20027;-61
2021/05/30 05:25:40;;;;;;;2.40;1.98;;;18.70;59.40;;;;;;5052426;28;20070;-61
2021/05/30 05:28:07;;;;;;;2.15;1.90;;;18.80;59.50;;;;;;5052437;28;20037;-61
2021/05/30 05:30:33;;;;;;;2.92;2.17;;;18.70;59.40;;;;;;5052311;28;20535;-61
2021/05/30 05:33:00;;;;;;;3.47;2.00;;;18.50;59.30;;;;;;5052327;28;20025;-61
2021/05/30 05:35:28;;;;;;;3.83;2.42;;;18.70;59.50;;;;;;5052582;28;20024;-61
2021/05/30 05:37:56;;;;;;;2.60;2.40;;;18.70;59.50;;;;;;5052223;28;20021;-61
2021/05/30 05:40:22;;;;;;;2.45;2.10;;;18.70;59.50;;;;;;5052441;28;20033;-61
2021/05/30 05:42:49;;;;;;;2.38;2.28;;;18.80;59.70;;;;;;5052276;28;20022;-61
2021/05/30 05:45:16;;;;;;;3.67;2.45;;;18.50;59.60;;;;;;5052456;28;20029;-61
2021/05/30 05:47:43;;;;;;;2.70;2.40;;;18.70;59.70;;;;;;5052172;28;20021;-61
2021/05/30 05:50:21;;;;;;;3.25;2.20;;;18.50;59.50;;;;;;5052059;28;20191;-61
2021/05/30 05:52:47;;;;;;;2.75;2.55;;;18.60;59.70;;;;;;5052185;28;20052;-61
2021/05/30 05:55:14;;;;;;;2.40;2.20;;;18.50;59.80;;;;;;5052113;28;20040;-61
2021/05/30 05:57:41;;;;;;;3.33;2.13;;;18.50;59.60;;;;;;5052367;28;20019;-61
2021/05/30 06:00:09;;;;;;;4.00;2.38;;;18.80;60.40;;;;;;5051996;28;20079;-61
2021/05/30 06:02:36;;;;;;;2.88;2.45;;;18.80;60.10;;;;;;5052291;28;20375;-61
2021/05/30 06:05:02;;;;;;;2.72;2.53;;;18.60;60.00;;;;;;5051992;28;20594;-61
2021/05/30 06:07:27;;;;;;;6.47;2.75;;;18.70;60.60;;;;;;5052023;28;20064;-61
2021/05/30 06:09:53;;;;;;;2.85;2.28;;;18.80;60.50;;;;;;5052334;28;20021;-61
2021/05/30 06:12:19;;;;;;;2.50;2.10;;;18.60;60.40;;;;;;5052419;28;20498;-61
2021/05/30 06:14:45;;;;;;;3.28;2.15;;;18.60;60.10;;;;;;5052305;28;20531;-61
2021/05/30 06:17:12;;;;;;;2.83;2.40;;;18.90;60.60;;;;;;5052217;28;20103;-61
2021/05/30 06:19:38;;;;;;;2.42;2.10;;;18.60;60.50;;;;;;5051956;28;20051;-61
2021/05/30 06:22:05;;;;;;;2.10;1.88;;;18.90;60.70;;;;;;5051825;28;20040;-61
2021/05/30 06:24:31;;;;;;;1.95;1.85;;;18.70;60.30;;;;;;5052159;28;20021;-61
2021/05/30 06:26:58;;;;;;;2.08;1.92;;;18.60;60.20;;;;;;5052075;28;20025;-61
2021/05/30 06:29:24;;;;;;;2.13;1.95;;;18.60;60.70;;;;;;5051805;28;20021;-61
2021/05/30 06:31:50;;;;;;;1.95;1.70;;;18.60;60.40;;;;;;5054057;28;20024;-61
2021/05/30 06:34:16;;;;;;;1.58;1.48;;;18.50;60.00;;;;;;5055730;28;20515;-58
2021/05/30 06:36:43;;;;;;;1.85;1.70;;;18.70;60.00;;;;;;5054038;28;20021;-60
2021/05/30 06:39:09;;;;;;;2.25;2.05;;;18.60;59.90;;;;;;5055301;28;20025;-59
2021/05/30 06:41:35;;;;;;;2.58;2.00;;;18.80;59.90;;;;;;5055354;28;20036;-60
2021/05/30 06:44:01;;;;;;;2.42;1.75;;;18.60;59.70;;;;;;5055158;28;20021;-60
2021/05/30 06:46:27;;;;;;;2.40;1.65;;;18.70;59.80;;;;;;5055294;28;20021;-60
2021/05/30 06:48:53;;;;;;;3.85;2.08;;;18.70;59.80;;;;;;5053598;28;20038;-59
2021/05/30 06:51:20;;;;;;;2.55;2.35;;;18.60;59.70;;;;;;5053681;28;20115;-60
2021/05/30 06:53:47;;;;;;;1.98;1.88;;;18.90;59.90;;;;;;5054923;28;20025;-60
2021/05/30 06:56:14;;;;;;;2.10;1.90;;;18.90;59.90;;;;;;5055189;28;20111;-59
2021/05/30 06:58:41;;;;;;;2.58;2.38;;;18.70;59.60;;;;;;5054864;28;20013;-59
2021/05/30 07:01:07;;;;;;;3.13;2.17;;;18.90;59.70;;;;;;5054772;28;20041;-59
2021/05/30 07:03:32;;;;;;;2.10;2.00;;;18.90;59.70;;;;;;5053541;28;20075;-59
2021/05/30 07:05:59;;;;;;;5.65;2.10;;;19.00;59.80;;;;;;5055074;28;20028;-58
2021/05/30 07:08:25;;;;;;;2.40;2.20;;;19.00;59.90;;;;;;5054900;28;20407;-59
2021/05/30 07:10:51;;;;;;;2.50;2.30;;;18.60;59.90;;;;;;5055071;28;20024;-59
2021/05/30 07:13:17;;;;;;;1.92;1.83;;;18.70;60.00;;;;;;5053449;28;20471;-59
2021/05/30 07:15:42;;;;;;;2.55;2.35;;;18.70;60.10;;;;;;5054694;28;20041;-58
2021/05/30 07:18:08;;;;;;;3.55;2.20;;;18.80;60.20;;;;;;5053326;28;20029;-60
2021/05/30 07:20:33;;;;;;;2.83;2.45;;;19.00;60.50;;;;;;5054870;28;20052;-60
2021/05/30 07:22:59;;;;;;;2.63;2.40;;;18.70;60.40;;;;;;5053430;28;20025;-55
2021/05/30 07:25:25;;;;;;;3.88;2.45;;;19.00;60.80;;;;;;5054564;28;20025;-55
2021/05/30 07:27:51;;;;;;;3.58;2.03;;;19.50;61.30;;;;;;5054439;28;20021;-59
2021/05/30 07:30:18;;;;;;;5.80;2.50;;;19.00;61.10;;;;;;5053238;28;20025;-60
2021/05/30 07:32:43;;;;;;;5.47;2.63;;;19.00;61.10;;;;;;5054474;28;20028;-59
2021/05/30 07:35:09;;;;;;;8.10;2.28;;;18.80;61.00;;;;;;5054672;28;20464;-58
2021/05/30 07:37:35;;;;;;;5.15;2.42;;;19.00;61.00;;;;;;5054381;28;20484;-58
2021/05/30 07:40:01;;;;;;;8.50;2.55;;;19.10;61.10;;;;;;5054301;28;20025;-58
2021/05/30 07:42:26;;;;;;;3.15;2.88;;;18.90;60.80;;;;;;5051924;28;20115;-59
2021/05/30 07:44:52;;;;;;;4.95;2.20;;;19.10;60.80;;;;;;5054563;28;20056;-59
2021/05/30 07:47:18;;;;;;;5.03;2.85;;;18.80;60.50;;;;;;5054430;28;20021;-59
2021/05/30 07:49:43;;;;;;;2.65;2.45;;;18.80;60.40;;;;;;5052944;28;20144;-59
2021/05/30 07:52:09;;;;;;;6.30;2.47;;;19.30;60.70;;;;;;5054356;28;20017;-59
2021/05/30 07:54:35;;;;;;;4.60;2.50;;;19.60;61.00;;;;;;5054384;28;20049;-58
2021/05/30 07:57:00;;;;;;;5.88;2.50;;;19.10;60.70;;;;;;5054077;28;20100;-58
2021/05/30 07:59:26;;;;;;;6.18;2.78;;;19.00;60.70;;;;;;5054023;28;20060;-57
2021/05/30 08:01:52;;;;;;;6.60;3.08;;;19.20;60.80;;;;;;5053861;28;20424;-59
2021/05/30 08:04:17;;;;;;;4.57;3.00;;;18.90;60.60;;;;;;5052873;28;20353;-59
2021/05/30 08:06:45;;;;;;;4.82;2.92;;;18.90;60.60;;;;;;5053905;28;20036;-59
2021/05/30 08:09:10;;;;;;;4.13;2.88;;;19.20;60.80;;;;;;5053988;28;20028;-58
2021/05/30 08:11:36;;;;;;;3.58;2.38;;;19.20;60.80;;;;;;5053689;28;20028;-58
2021/05/30 08:14:02;;;;;;;5.40;2.15;;;19.30;60.70;;;;;;5053840;28;20013;-59
2021/05/30 08:16:27;;;;;;;4.55;2.67;;;19.40;60.80;;;;;;5053593;28;20503;-58
2021/05/30 08:18:53;;;;;;;4.43;3.03;;;19.30;60.70;;;;;;5053512;28;20029;-59
2021/05/30 08:21:19;;;;;;;3.97;2.50;;;19.00;60.40;;;;;;5053680;28;20114;-59
2021/05/30 08:23:44;;;;;;;2.72;2.53;;;19.10;60.40;;;;;;5035658;28;20013;-59
2021/05/30 08:26:10;;;;;;;4.38;2.83;;;19.00;60.30;;;;;;5053479;28;20017;-59
2021/05/30 08:28:37;;;;;;;4.25;3.05;;;19.00;60.30;;;;;;5053420;28;20372;-59
2021/05/30 08:31:04;;;;;;;5.72;2.67;;;19.30;60.40;;;;;;5052152;28;20376;-59
2021/05/30 08:33:30;;;;;;;3.40;2.70;;;19.40;60.40;;;;;;5053280;28;20047;-59
2021/05/30 08:35:56;;;;;;;3.47;2.60;;;19.30;60.30;;;;;;5053500;28;20025;-58
2021/05/30 08:38:22;;;;;;;3.70;2.67;;;19.30;60.30;;;;;;5053151;28;20051;-59
2021/05/30 08:40:49;;;;;;;3.22;2.55;;;19.40;60.30;;;;;;5053153;28;20061;-59
2021/05/30 08:43:15;;;;;;;3.22;2.50;;;19.10;60.10;;;;;;5053415;28;20032;-59
2021/05/30 08:45:42;;;;;;;4.32;2.28;;;20.00;60.50;;;;;;5053297;28;20024;-59
2021/05/30 08:48:08;;;;;;;4.07;2.70;;;20.00;60.50;;;;;;5053714;28;20030;-57
2021/05/30 08:50:34;;;;;;;2.85;2.40;;;19.50;60.10;;;;;;5052936;28;20037;-59
2021/05/30 08:52:59;;;;;;;2.58;2.20;;;19.70;60.30;;;;;;5053299;28;20382;-59
2021/05/30 08:55:25;;;;;;;6.43;3.03;;;19.40;60.00;;;;;;5051551;28;20025;-59
2021/05/30 08:57:51;;;;;;;2.45;2.20;;;19.40;59.90;;;;;;5053380;28;20021;-57
2021/05/30 09:00:22;;;;;;;2.92;2.67;;;19.60;60.00;;;;;;5052849;28;20075;-59
2021/05/30 09:03:08;;;;;;;5.28;2.83;;;19.60;59.90;;;;;;5052961;28;20513;-59
2021/05/30 09:05:37;;;;;;;3.20;2.67;;;19.70;59.90;;;;;;5052793;28;20391;-59
2021/05/30 09:08:03;;;;;;;2.35;2.20;;;19.70;59.90;;;;;;5053006;28;20032;-59
2021/05/30 09:10:29;;;;;;;2.20;2.00;;;19.70;59.70;;;;;;5052702;28;20064;-60
2021/05/30 09:13:14;;;;;;;4.95;2.63;;;19.60;59.60;;;;;;5052744;28;20025;-60
2021/05/30 09:18:35;;;;;;;2.40;2.20;;;19.80;59.60;;;;;;5052737;28;20395;-61
2021/05/30 09:21:01;;;;;;;5.32;2.28;;;19.90;59.50;;;;;;5052686;28;20032;-60
2021/05/30 09:23:41;;;;;;;5.90;2.72;;;20.50;59.80;;;;;;5052914;28;20044;-61
2021/05/30 09:26:08;;;;;;;3.40;2.58;;;20.00;59.40;;;;;;5052686;28;20029;-61
2021/05/30 09:28:34;;;;;;;2.92;2.58;;;19.90;59.30;;;;;;5051316;28;20013;-59
2021/05/30 09:31:03;;;;;;;2.92;2.30;;;20.00;59.30;;;;;;5053015;28;20065;-61
2021/05/30 09:33:31;;;;;;;3.57;2.13;;;19.80;59.10;;;;;;5052625;28;20017;-61
2021/05/30 09:35:59;;;;;;;3.03;2.28;;;20.00;59.20;;;;;;5052565;28;20345;-61
2021/05/30 09:38:28;;;;;;;3.83;2.00;;;20.10;59.00;;;;;;5052454;28;20021;-61
2021/05/30 09:41:08;;;;;;;5.53;2.42;;;19.80;58.70;;;;;;5052597;28;20033;-61
2021/05/30 09:43:37;;;;;;;4.47;2.30;;;20.10;58.70;;;;;;5052472;28;20067;-61
2021/05/30 09:46:12;;;;;;;2.28;2.08;;;20.00;58.60;;;;;;5052696;28;20464;-61
2021/05/30 09:48:40;;;;;;;3.13;2.20;;;20.20;58.60;;;;;;5052731;28;20100;-61
2021/05/30 09:51:40;;;;;;;2.75;2.03;;;20.00;58.50;;;;;;5050811;28;20041;-62
2021/05/30 09:54:11;;;;;;;4.28;2.05;;;20.30;58.40;;;;;;5052107;28;20017;-62
2021/05/30 09:56:38;;;;;;;2.38;1.95;;;20.30;58.40;;;;;;5051032;28;20070;-61
2021/05/30 09:59:06;;;;;;;4.25;2.35;;;20.40;58.40;;;;;;5052431;28;20033;-61
2021/05/30 10:02:00;;;;;;;4.32;2.15;;;20.10;58.90;;;;;;5052366;28;20033;-61
2021/05/30 10:04:35;;;;;;;3.72;2.10;;;20.50;58.30;;;;;;5052394;28;20095;-61
2021/05/30 10:07:04;;;;;;;2.97;1.73;;;20.50;58.10;;;;;;5054854;28;20104;-61
2021/05/30 10:09:30;;;;;;;1.90;1.75;;;20.60;58.00;;;;;;5055824;28;20020;-61
2021/05/30 10:11:56;;;;;;;2.90;2.22;;;20.40;57.80;;;;;;5055651;28;20023;-61
2021/05/30 10:14:25;;;;;;;2.25;2.00;;;20.60;57.80;;;;;;5055545;28;20053;-61
2021/05/30 10:16:51;;;;;;;2.47;2.10;;;;;;;;;;5054366;28;20112;-61
2021/05/30 10:19:30;;;;;;;2.08;1.98;;;20.70;57.20;;;;;;5054488;28;20469;-60
2021/05/30 10:21:58;;;;;;;3.33;2.58;;;20.70;57.70;;;;;;5055598;28;20052;-61
2021/05/30 10:24:24;;;;;;;4.90;2.10;;;20.60;57.70;;;;;;5055272;28;20476;-61
2021/05/30 10:27:20;;;;;;;2.90;2.13;;;20.50;57.80;;;;;;5054259;28;20116;-61
2021/05/30 10:30:07;;;;;;;2.35;1.98;;;20.80;57.90;;;;;;5055698;28;20049;-61
2021/05/30 10:32:34;;;;;;;2.28;1.83;;;21.00;82.10;;;;;;5055022;28;20070;-61
2021/05/30 10:35:22;;;;;;;4.57;2.08;;;20.70;57.70;;;;;;5054909;28;20027;-61
2021/05/30 10:37:53;;;;;;;1.95;1.65;;;20.90;57.70;;;;;;5055099;28;20097;-61
2021/05/30 10:40:22;;;;;;;6.78;1.70;;;21.00;57.70;;;;;;5054948;28;20051;-61
2021/05/30 10:43:09;;;;;;;2.45;1.73;;;21.60;58.00;;;;;;5055528;28;20089;-61
2021/05/30 10:45:44;;;;;;;3.92;1.85;;;21.00;57.60;;;;;;5055002;28;20124;-61
2021/05/30 10:48:20;;;;;;;2.85;1.90;;;21.50;57.80;;;;;;5055265;28;20475;-61
2021/05/30 10:53:40;;;;;;;1.90;1.70;;;21.10;57.50;;;;;;5055191;28;20043;-61
2021/05/30 10:56:14;;;;;;;1.73;1.63;;;21.20;57.50;;;;;;5053478;28;20032;-61
2021/05/30 10:58:40;;;;;;;2.80;1.88;;;21.00;57.40;;;;;;5054762;28;20024;-61
2021/05/30 11:01:35;;;;;;;2.15;1.60;;;21.20;57.40;;;;;;5054960;28;20021;-61
2021/05/30 11:04:29;;;;;;;2.67;1.60;;;21.00;57.20;;;;;;5054517;28;20025;-59
2021/05/30 11:07:00;;;;;;;4.15;1.70;;;21.20;57.30;;;;;;5054604;28;20061;-58
2021/05/30 11:09:52;;;;;;;3.22;1.95;;;21.20;57.30;;;;;;5054639;28;20029;-59
2021/05/30 11:12:22;;;;;;;3.88;2.42;;;21.20;57.30;;;;;;5054808;28;20424;-60
2021/05/30 11:15:11;;;;;;;6.15;1.92;;;21.20;57.30;;;;;;5054803;28;20032;-60
2021/05/30 11:17:57;;;;;;;3.45;2.38;;;21.10;57.10;;;;;;5054086;28;20021;-60
2021/05/30 11:20:29;;;;;;;3.38;1.85;;;21.00;57.00;;;;;;5054362;28;20044;-60
2021/05/30 11:23:10;;;;;;;2.78;2.22;;;21.10;57.00;;;;;;5053299;28;20040;-60
2021/05/30 11:25:46;;;;;;;4.07;2.35;;;21.20;57.00;;;;;;5054617;28;20017;-61
2021/05/30 11:28:13;;;;;;;5.47;2.40;;;20.80;56.80;;;;;;5054929;28;20029;-61
2021/05/30 11:30:48;;;;;;;4.30;2.10;;;21.20;56.90;;;;;;5053032;28;20610;-62
2021/05/30 11:33:25;;;;;;;2.55;2.30;;;21.30;57.00;;;;;;5054601;28;20048;-61
2021/05/30 11:35:54;;;;;;;2.78;2.13;;;21.30;57.10;;;;;;5052854;28;20036;-61
2021/05/30 11:38:32;;;;;;;2.40;2.20;;;21.40;57.10;;;;;;5054424;28;20021;-61
2021/05/30 11:41:31;;;;;;;3.83;2.35;;;21.50;57.20;;;;;;5054073;28;20072;-62
2021/05/30 11:43:58;;;;;;;2.55;2.10;;;21.50;57.20;;;;;;5042536;28;20559;-61
2021/05/30 11:46:25;;;;;;;2.33;2.08;;;21.50;57.20;;;;;;5054021;28;20029;-61
2021/05/30 11:49:05;;;;;;;3.33;2.42;;;21.50;57.20;;;;;;5053855;28;20543;-61
2021/05/30 11:51:46;;;;;;;2.95;2.15;;;21.50;57.20;;;;;;5053944;28;20025;-61
2021/05/30 11:54:12;;;;;;;4.22;2.30;;;21.60;57.40;;;;;;5053852;28;20039;-61
2021/05/30 11:56:42;;;;;;;2.70;1.88;;;21.60;57.40;;;;;;5054103;28;20108;-61
2021/05/30 11:59:08;;;;;;;3.17;1.70;;;21.70;57.50;;;;;;5054069;28;20055;-61
2021/05/30 12:01:48;;;;;;;3.00;2.25;;;21.60;57.40;;;;;;5053685;28;20036;-61
2021/05/30 12:04:24;;;;;;;1.93;1.83;;;21.60;57.30;;;;;;5053786;28;20082;-61
2021/05/30 12:06:51;;;;;;;2.20;2.00;;;21.60;57.40;;;;;;5052368;28;20287;-61
2021/05/30 12:09:17;;;;;;;2.22;1.95;;;21.70;57.50;;;;;;5053863;28;20040;-62
2021/05/30 12:11:43;;;;;;;2.40;2.20;;;21.50;57.30;;;;;;5053606;28;20068;-61
2021/05/30 12:14:08;;;;;;;6.22;2.30;;;21.70;57.40;;;;;;5053668;28;20049;-61
2021/05/30 12:16:35;;;;;;;3.30;1.60;;;21.80;57.50;;;;;;5053803;28;20021;-61
2021/05/30 12:19:03;;;;;;;3.25;2.15;;;21.80;57.40;;;;;;5053688;28;20380;-60
2021/05/30 12:21:44;;;;;;;2.40;2.20;;;21.80;57.30;;;;;;5053291;28;20101;-61
2021/05/30 12:24:12;;;;;;;4.32;1.70;;;21.80;57.40;;;;;;5053625;28;20025;-60
2021/05/30 12:26:47;;;;;;;2.40;2.08;;;21.80;57.50;;;;;;5053615;28;20021;-61
2021/05/30 12:29:14;;;;;;;3.72;2.00;;;22.20;57.60;;;;;;5052994;28;20021;-60
2021/05/30 12:31:41;;;;;;;3.88;2.05;;;21.90;57.60;;;;;;5053138;28;20036;-61
2021/05/30 12:34:08;;;;;;;1.92;1.77;;;21.90;57.50;;;;;;5053214;28;20392;-61
2021/05/30 12:36:45;;;;;;;2.00;1.75;;;21.70;57.30;;;;;;5053350;28;20082;-61
2021/05/30 12:39:14;;;;;;;2.17;1.95;;;21.90;57.90;;;;;;5053262;28;20032;-61
2021/05/30 12:41:44;;;;;;;2.47;1.77;;;21.90;57.30;;;;;;5053204;28;20037;-61
2021/05/30 12:44:15;;;;;;;5.47;2.13;;;21.90;57.30;;;;;;5053051;28;20875;-61
2021/05/30 12:46:54;;;;;;;3.25;1.98;;;22.30;57.40;;;;;;5053311;28;20048;-60
2021/05/30 12:49:20;;;;;;;2.30;2.10;;;21.90;57.10;;;;;;5051576;28;20033;-60
2021/05/30 12:52:18;;;;;;;3.47;1.73;;;22.40;57.30;;;;;;5053130;28;20021;-60
2021/05/30 12:55:06;;;;;;;2.22;2.03;;;22.50;57.50;;;;;;5040102;28;20496;-60
2021/05/30 12:57:40;;;;;;;2.42;2.00;;;22.40;57.50;;;;;;5052762;28;20027;-60
2021/05/30 13:00:09;;;;;;;2.22;2.03;;;22.00;57.40;;;;;;5053093;28;20135;-60